グラン・カナリア島 の空港の天気 - METARとTAF

グラン・カナリア空港 ( GCLP / LPA ) - グラン・カナリア島
飛行場実況気象(Metar)
観測時間11/30 11:30 WET (11/30 11:30 UTC)
風向・風速南南西 8m/s
視程10km以上
天気現象
少しの雲 雲底高度 760m
気温22℃
湿度60%
気圧1012hPa
METARGCLP 301130Z 21016KT 9999 FEW025 22/14 Q1012 NOSIG
過去の天気等 Google飛行場航空写真 Wunderground天気予報

過去48時間のMETAR

飛行場予報(TAF)
発表時間: 11/30 08:00 WET (11/30 08:00 UTC)
予報対象時間: 30日9時 WET ~ 1日9時 WET
風向・風速南西 8m/s
視程10km以上
全天の8割程度の雲 雲底高度 910m
30日9時 WET ~ 30日21時 WET に 確率 30% で一時的に
天気現象雨霧雨
30日9時 WET ~ 30日21時 WET に 確率 30% で一時的に
風向・風速南西 8m/s 瞬間風速 13m/s
TAF GCLP 300800Z 3009/0109 23015KT 9999 BKN030 TX22/3014Z TN17/0107Z
PROB30 TEMPO 3009/3021 RADZ
PROB30 TEMPO 3009/3021 23015G25KT